Bo Bo, Indiana
Current Conditions -  °F | °C
As of 11:54 PM on Friday 31 Oct 2014 (Local Time) from KFWA Reporting Station
Overcast Overcast  
Wind Chill: 23°   Ceiling: 3200
Heat Index: 34°   Visibility: 10mi
Dew Point: 25°   Wind: 18mph
Humidity: 70%   Direction: 350°N
Pressure: 30.16"   Gusts: 35mph
Location:  40.8317°N, 84.9398°W
Report Text: KFWA 010354Z 35016G30KT 10SM OVC032 01/M04 A3016 RMK AO2 PK WND 01032/0337 SLP217 T00111039
Loading
Personal Weather Stations






























Interactive Weather Map
Tropical Storm Tracking
New forecast layout! Learn more

10-Day Weather Forecast

Advertisements
Track Severe Weather on mobile